createdAt,value
2018-09-30T00:01:21.029Z,71.30
2018-09-30T00:03:49.710Z,71.00
2018-09-30T00:06:18.396Z,70.60
2018-09-30T00:08:47.270Z,70.60
2018-09-30T00:11:16.049Z,70.50
2018-09-30T00:13:44.829Z,70.60
2018-09-30T00:16:13.461Z,71.40
2018-09-30T00:18:42.036Z,70.80
2018-09-30T00:21:10.664Z,70.60
2018-09-30T00:23:44.906Z,70.50
2018-09-30T00:26:19.153Z,70.50
2018-09-30T00:28:47.901Z,70.70
2018-09-30T00:31:16.653Z,70.90
2018-09-30T00:33:50.899Z,70.90
2018-09-30T00:36:19.631Z,70.80
2018-09-30T00:38:48.221Z,70.40
2018-09-30T00:41:16.840Z,70.10
2018-09-30T00:43:45.441Z,69.80
2018-09-30T00:46:14.141Z,69.70
2018-09-30T00:48:42.870Z,69.60
2018-09-30T00:51:11.606Z,69.50
2018-09-30T00:53:40.313Z,69.60
2018-09-30T00:56:09.593Z,69.60
2018-09-30T00:58:39.215Z,69.40
2018-09-30T01:01:07.813Z,69.10
2018-09-30T01:03:36.451Z,68.80
2018-09-30T01:06:05.243Z,68.80
2018-09-30T01:08:34.040Z,68.90
2018-09-30T01:11:03.367Z,68.70
2018-09-30T01:13:32.256Z,68.80
2018-09-30T01:16:01.039Z,68.80
2018-09-30T01:18:29.884Z,68.80
2018-09-30T01:20:58.633Z,68.90
2018-09-30T01:23:27.378Z,69.10
2018-09-30T01:25:56.626Z,69.40
2018-09-30T01:28:25.920Z,69.80
2018-09-30T01:30:59.933Z,70.10
2018-09-30T01:33:31.236Z,70.50
2018-09-30T01:36:02.536Z,70.90
2018-09-30T01:38:33.926Z,71.00
2018-09-30T01:41:04.331Z,70.90
2018-09-30T01:43:33.068Z,71.00
2018-09-30T01:46:01.808Z,71.00
2018-09-30T01:48:30.508Z,71.50
2018-09-30T01:50:59.089Z,71.50
2018-09-30T01:53:27.729Z,71.50
2018-09-30T01:55:56.369Z,71.10
2018-09-30T01:58:25.128Z,70.80
2018-09-30T02:00:53.879Z,70.70
2018-09-30T02:03:22.589Z,70.40
2018-09-30T02:05:51.943Z,70.40
2018-09-30T02:08:20.573Z,70.40
2018-09-30T02:10:49.919Z,70.60
2018-09-30T02:13:18.513Z,70.60
2018-09-30T02:15:47.091Z,70.70
2018-09-30T02:18:15.736Z,70.40
2018-09-30T02:20:44.493Z,70.50
2018-09-30T02:23:13.201Z,70.90
2018-09-30T02:25:41.896Z,71.30
2018-09-30T02:28:10.589Z,71.40
2018-09-30T02:30:39.329Z,72.10
2018-09-30T02:33:08.045Z,72.30
2018-09-30T02:35:36.749Z,72.60
2018-09-30T02:38:06.006Z,72.80
2018-09-30T02:40:35.741Z,72.70
2018-09-30T02:43:04.394Z,73.00
2018-09-30T02:45:33.048Z,72.60
2018-09-30T02:48:01.714Z,72.30
2018-09-30T02:50:30.444Z,71.90
2018-09-30T02:52:59.123Z,72.20
2018-09-30T02:55:27.854Z,72.40
2018-09-30T02:57:56.566Z,72.50
2018-09-30T03:00:25.532Z,72.80
2018-09-30T03:06:21.188Z,73.20
2018-09-30T03:08:55.508Z,73.40
2018-09-30T03:11:24.329Z,73.10
2018-09-30T03:13:53.115Z,73.40
2018-09-30T03:16:21.836Z,73.10
2018-09-30T03:18:50.486Z,73.10
2018-09-30T03:21:19.128Z,72.80
2018-09-30T03:23:47.759Z,72.70
2018-09-30T03:26:16.427Z,72.90
2018-09-30T03:28:45.089Z,73.40
2018-09-30T03:31:13.753Z,73.80
2018-09-30T03:33:42.426Z,74.00
2018-09-30T03:36:11.235Z,74.10
2018-09-30T03:38:40.040Z,74.40
2018-09-30T03:41:08.847Z,74.10
2018-09-30T03:43:37.635Z,73.90
2018-09-30T03:46:06.386Z,73.70
2018-09-30T03:48:35.031Z,74.00
2018-09-30T03:51:03.791Z,74.10
2018-09-30T03:53:32.443Z,73.80
2018-09-30T03:56:01.105Z,73.00
2018-09-30T03:58:29.753Z,72.60
2018-09-30T04:00:58.395Z,72.40
2018-09-30T04:03:27.728Z,73.30
2018-09-30T04:05:56.417Z,72.40
2018-09-30T04:08:25.075Z,72.20
2018-09-30T04:10:53.735Z,72.10
2018-09-30T04:13:22.393Z,72.30
2018-09-30T04:15:51.147Z,72.50
2018-09-30T04:18:19.990Z,72.30
2018-09-30T04:20:48.660Z,71.40
2018-09-30T04:23:17.293Z,70.10
2018-09-30T04:25:45.956Z,68.60
2018-09-30T04:28:14.698Z,67.50
2018-09-30T04:30:43.436Z,65.60
2018-09-30T04:33:12.189Z,64.50
2018-09-30T04:35:40.953Z,64.40
2018-09-30T04:38:09.733Z,64.80
2018-09-30T04:40:38.480Z,65.00
2018-09-30T04:43:07.248Z,64.50
2018-09-30T04:45:36.021Z,65.20
2018-09-30T04:48:05.008Z,64.80
2018-09-30T04:53:34.108Z,65.50
2018-09-30T04:56:02.850Z,65.40
2018-09-30T04:58:31.508Z,66.40
2018-09-30T05:01:00.141Z,67.30
2018-09-30T05:03:28.756Z,67.00
2018-09-30T05:05:57.479Z,66.80
2018-09-30T05:08:26.128Z,67.80
2018-09-30T05:10:54.947Z,68.10
2018-09-30T05:13:23.521Z,68.60
2018-09-30T05:15:52.158Z,69.10
2018-09-30T05:18:20.730Z,69.50
2018-09-30T05:20:49.505Z,69.80
2018-09-30T05:23:18.348Z,69.70
2018-09-30T05:25:48.296Z,69.70
2018-09-30T05:28:17.156Z,70.00
2018-09-30T05:30:46.646Z,69.80
2018-09-30T05:33:16.113Z,69.10
2018-09-30T05:35:45.047Z,69.00
2018-09-30T05:38:15.251Z,68.30
2018-09-30T05:40:45.775Z,68.20
2018-09-30T05:43:14.688Z,68.00
2018-09-30T05:45:43.906Z,67.50
2018-09-30T05:48:12.683Z,67.10
2018-09-30T05:50:41.253Z,66.80
2018-09-30T05:53:09.801Z,66.40
2018-09-30T05:55:38.496Z,65.30
2018-09-30T05:58:07.345Z,65.00
2018-09-30T06:00:35.923Z,63.80
2018-09-30T06:03:04.473Z,63.70
2018-09-30T06:05:33.021Z,63.10
2018-09-30T06:08:01.565Z,62.10
2018-09-30T06:10:30.295Z,62.30
2018-09-30T06:13:04.675Z,60.40
2018-09-30T06:15:33.213Z,60.00
2018-09-30T06:18:01.740Z,59.50
2018-09-30T06:20:30.933Z,58.00
2018-09-30T06:22:59.426Z,58.80
2018-09-30T06:25:28.061Z,57.90
2018-09-30T06:28:02.131Z,59.30
2018-09-30T06:30:30.703Z,60.50
2018-09-30T06:32:59.276Z,60.30
2018-09-30T06:35:27.835Z,59.70
2018-09-30T06:37:56.398Z,59.50
2018-09-30T06:40:25.440Z,59.20
2018-09-30T06:42:54.060Z,58.30
2018-09-30T06:45:23.844Z,57.50
2018-09-30T06:47:52.566Z,55.80
2018-09-30T06:50:21.200Z,54.00
2018-09-30T06:52:49.855Z,52.80
2018-09-30T06:55:18.565Z,51.70
2018-09-30T06:57:47.546Z,50.20
2018-09-30T07:00:16.833Z,49.60
2018-09-30T07:02:46.181Z,48.20
2018-09-30T07:05:14.929Z,47.60
2018-09-30T07:07:43.634Z,47.10
2018-09-30T07:10:12.543Z,46.90
2018-09-30T07:12:41.777Z,46.00
2018-09-30T07:15:10.915Z,46.00
2018-09-30T07:17:39.792Z,44.40
2018-09-30T07:20:09.533Z,44.60
2018-09-30T07:22:39.128Z,44.10
2018-09-30T07:25:07.906Z,44.30
2018-09-30T07:27:36.460Z,43.70
2018-09-30T07:30:11.085Z,43.80
2018-09-30T07:32:45.236Z,43.00
2018-09-30T07:35:13.846Z,41.30
2018-09-30T07:37:42.398Z,41.60
2018-09-30T07:40:11.156Z,41.20
2018-09-30T07:42:40.768Z,40.70
2018-09-30T07:45:09.461Z,40.20
2018-09-30T07:47:38.127Z,39.90
2018-09-30T07:50:06.955Z,39.40
2018-09-30T07:52:35.664Z,38.70
2018-09-30T07:55:04.273Z,38.60
2018-09-30T07:57:32.974Z,38.60
2018-09-30T08:00:01.584Z,37.50
2018-09-30T08:02:30.127Z,38.00
2018-09-30T08:04:58.658Z,38.50
2018-09-30T08:07:27.288Z,38.10
2018-09-30T08:09:55.863Z,36.50
2018-09-30T08:12:24.599Z,38.90
2018-09-30T08:14:53.356Z,37.60
2018-09-30T08:17:22.763Z,38.00
2018-09-30T08:19:52.139Z,36.90
2018-09-30T08:22:20.788Z,36.40
2018-09-30T08:24:49.481Z,36.10
2018-09-30T08:27:18.153Z,35.30
2018-09-30T08:29:46.778Z,35.30
2018-09-30T08:32:15.338Z,34.00
2018-09-30T08:34:44.009Z,33.60
2018-09-30T08:37:12.659Z,33.20
2018-09-30T08:39:41.303Z,31.90
2018-09-30T08:42:10.814Z,30.70
2018-09-30T08:44:39.359Z,31.00
2018-09-30T08:47:13.489Z,31.50
2018-09-30T08:49:42.199Z,30.50
2018-09-30T08:52:11.325Z,29.70
2018-09-30T08:54:39.994Z,30.70
2018-09-30T08:57:08.706Z,30.40
2018-09-30T08:59:37.320Z,29.30
2018-09-30T09:02:06.019Z,28.40
2018-09-30T09:04:40.305Z,29.20
2018-09-30T09:07:08.974Z,28.30
2018-09-30T09:09:44.076Z,26.70
2018-09-30T09:12:12.990Z,26.20
2018-09-30T09:14:41.751Z,25.50
2018-09-30T09:17:10.512Z,26.20
2018-09-30T09:19:39.233Z,26.90
2018-09-30T09:22:07.974Z,25.80
2018-09-30T09:24:36.675Z,25.70
2018-09-30T09:27:11.084Z,25.50
2018-09-30T09:29:39.705Z,26.00
2018-09-30T09:32:13.978Z,25.50
2018-09-30T09:34:42.689Z,25.50
2018-09-30T09:37:11.431Z,25.50
2018-09-30T09:39:40.219Z,25.40
2018-09-30T09:42:09.301Z,25.50
2018-09-30T09:44:37.984Z,24.90
2018-09-30T09:47:06.827Z,25.20
2018-09-30T09:49:35.488Z,24.90
2018-09-30T09:52:04.142Z,24.30
2018-09-30T09:54:32.837Z,24.20
2018-09-30T09:57:01.479Z,24.50
2018-09-30T09:59:30.241Z,24.80
2018-09-30T10:01:58.954Z,25.50
2018-09-30T10:04:27.644Z,24.10
2018-09-30T10:06:56.366Z,24.30
2018-09-30T10:09:25.456Z,24.60
2018-09-30T10:11:54.236Z,24.00
2018-09-30T10:14:23.049Z,23.70
2018-09-30T10:16:51.763Z,23.20
2018-09-30T10:19:20.568Z,23.20
2018-09-30T10:21:49.244Z,22.50
2018-09-30T10:24:17.943Z,22.60
2018-09-30T10:26:46.708Z,22.80
2018-09-30T10:29:15.336Z,23.40
2018-09-30T10:31:43.993Z,23.20
2018-09-30T10:34:12.740Z,22.90
2018-09-30T10:36:41.451Z,22.70
2018-09-30T10:39:11.036Z,22.30
2018-09-30T10:41:40.061Z,21.80
2018-09-30T10:44:08.938Z,21.90
2018-09-30T10:46:37.786Z,21.70
2018-09-30T10:49:06.879Z,21.90
2018-09-30T10:51:35.539Z,21.40
2018-09-30T10:54:04.171Z,21.50
2018-09-30T10:56:33.514Z,22.30
2018-09-30T10:59:02.138Z,21.90
2018-09-30T11:01:36.251Z,22.30
2018-09-30T11:04:05.046Z,22.30
2018-09-30T11:06:33.853Z,22.00
2018-09-30T11:09:02.841Z,22.20
2018-09-30T11:11:31.563Z,22.60
2018-09-30T11:14:00.315Z,22.20
2018-09-30T11:16:29.189Z,21.90
2018-09-30T11:18:57.947Z,20.90
2018-09-30T11:21:26.736Z,22.40
2018-09-30T11:23:55.400Z,22.50
2018-09-30T11:26:24.060Z,22.30
2018-09-30T11:28:52.743Z,21.60
2018-09-30T11:31:21.360Z,22.00
2018-09-30T11:33:50.063Z,22.80
2018-09-30T11:36:18.769Z,21.60
2018-09-30T11:38:47.823Z,21.80
2018-09-30T11:41:16.633Z,21.40
2018-09-30T11:43:45.253Z,21.40
2018-09-30T11:46:13.856Z,21.60
2018-09-30T11:48:43.069Z,21.60
2018-09-30T11:51:17.361Z,21.70
2018-09-30T11:53:45.999Z,22.00
2018-09-30T11:56:14.584Z,22.60
2018-09-30T11:58:44.154Z,21.70
2018-09-30T12:01:18.477Z,21.00
2018-09-30T12:03:47.395Z,21.60
2018-09-30T12:06:21.624Z,21.40
2018-09-30T12:08:56.323Z,21.30
2018-09-30T12:11:30.469Z,21.30
2018-09-30T12:13:59.095Z,21.60
2018-09-30T12:16:28.206Z,20.70
2018-09-30T12:18:56.805Z,21.40
2018-09-30T12:21:25.434Z,20.50
2018-09-30T12:23:54.087Z,21.30
2018-09-30T12:26:23.374Z,19.70
2018-09-30T12:28:52.111Z,22.00
2018-09-30T12:31:20.790Z,22.20
2018-09-30T12:33:49.426Z,21.60
2018-09-30T12:36:23.583Z,22.40
2018-09-30T12:38:52.190Z,22.60
2018-09-30T12:41:20.909Z,21.60
2018-09-30T12:43:49.676Z,21.60
2018-09-30T12:46:18.422Z,20.80
2018-09-30T12:48:47.249Z,21.10
2018-09-30T12:51:21.421Z,21.30
2018-09-30T12:53:50.141Z,21.00
2018-09-30T12:56:18.793Z,20.70
2018-09-30T12:58:50.349Z,21.00
2018-09-30T13:01:24.610Z,21.90
2018-09-30T13:03:54.311Z,20.50
2018-09-30T13:06:22.965Z,21.00
2018-09-30T13:08:51.628Z,20.80
2018-09-30T13:11:20.304Z,20.70
2018-09-30T13:13:48.903Z,21.00
2018-09-30T13:16:19.456Z,20.40
2018-09-30T13:18:48.037Z,21.30
2018-09-30T13:21:17.809Z,20.40
2018-09-30T13:23:46.698Z,21.00
2018-09-30T13:26:15.973Z,21.00
2018-09-30T13:28:45.286Z,20.70
2018-09-30T13:31:14.049Z,21.70
2018-09-30T13:33:42.859Z,21.50
2018-09-30T13:36:11.558Z,21.40
2018-09-30T13:38:40.237Z,21.40
2018-09-30T13:41:09.330Z,21.20
2018-09-30T13:43:38.338Z,21.30
2018-09-30T13:46:07.133Z,21.40
2018-09-30T13:48:36.836Z,22.00
2018-09-30T13:51:05.340Z,22.20
2018-09-30T13:53:33.968Z,21.00
2018-09-30T13:56:02.538Z,21.00
2018-09-30T13:58:31.776Z,20.60
2018-09-30T14:01:00.541Z,20.30
2018-09-30T14:03:29.248Z,20.10
2018-09-30T14:05:57.941Z,20.40
2018-09-30T14:08:26.668Z,20.50
2018-09-30T14:10:55.386Z,20.30
2018-09-30T14:13:24.064Z,21.20
2018-09-30T14:15:52.850Z,21.60
2018-09-30T14:18:21.621Z,20.50
2018-09-30T14:20:50.285Z,21.00
2018-09-30T14:23:18.983Z,21.60
2018-09-30T14:25:47.556Z,21.70
2018-09-30T14:28:16.130Z,22.20
2018-09-30T14:30:44.772Z,21.40
2018-09-30T14:33:13.552Z,21.60
2018-09-30T14:35:42.291Z,22.10
2018-09-30T14:38:11.016Z,22.20
2018-09-30T14:40:39.670Z,21.60
2018-09-30T14:43:08.558Z,21.40
2018-09-30T14:45:37.331Z,21.40
2018-09-30T14:48:06.440Z,21.70
2018-09-30T14:50:35.124Z,21.50
2018-09-30T14:53:03.707Z,21.90
2018-09-30T14:55:33.212Z,21.50
2018-09-30T14:58:01.824Z,21.40
2018-09-30T15:00:36.035Z,21.50
2018-09-30T15:03:04.803Z,21.50
2018-09-30T15:05:33.485Z,21.50
2018-09-30T15:08:02.182Z,21.90
2018-09-30T15:10:30.796Z,22.00
2018-09-30T15:12:59.352Z,21.90
2018-09-30T15:15:27.933Z,22.60
2018-09-30T15:17:56.551Z,22.30
2018-09-30T15:20:25.153Z,22.80
2018-09-30T15:22:53.684Z,22.40
2018-09-30T15:25:27.701Z,22.20
2018-09-30T15:27:59.376Z,22.70
2018-09-30T15:30:28.164Z,22.40
2018-09-30T15:32:56.908Z,22.40
2018-09-30T15:35:25.638Z,22.60
2018-09-30T15:37:54.286Z,22.60
2018-09-30T15:40:22.964Z,24.20
2018-09-30T15:42:51.665Z,24.40
2018-09-30T15:45:20.396Z,25.20
2018-09-30T15:47:49.132Z,25.80
2018-09-30T15:50:17.886Z,27.00
2018-09-30T15:52:46.601Z,27.00
2018-09-30T15:55:15.334Z,27.70
2018-09-30T15:57:44.145Z,28.10
2018-09-30T16:00:12.772Z,28.70
2018-09-30T16:02:41.306Z,29.20
2018-09-30T16:05:09.846Z,29.50
2018-09-30T16:07:39.249Z,29.70
2018-09-30T16:10:07.792Z,29.70
2018-09-30T16:12:36.656Z,29.90
2018-09-30T16:15:06.167Z,30.10
2018-09-30T16:17:35.458Z,31.30
2018-09-30T16:20:04.266Z,31.10
2018-09-30T16:22:32.979Z,31.10
2018-09-30T16:25:01.749Z,31.30
2018-09-30T16:27:31.059Z,30.80
2018-09-30T16:29:59.824Z,31.40
2018-09-30T16:32:28.484Z,31.00
2018-09-30T16:34:57.627Z,30.70
2018-09-30T16:37:26.316Z,30.70
2018-09-30T16:39:55.029Z,31.00
2018-09-30T16:42:23.658Z,31.00
2018-09-30T16:44:52.857Z,31.50
2018-09-30T16:47:27.408Z,31.50
2018-09-30T16:49:56.074Z,31.70
2018-09-30T16:52:24.626Z,31.90
2018-09-30T16:54:53.289Z,32.20
2018-09-30T16:57:21.813Z,32.50
2018-09-30T16:59:50.454Z,32.50
2018-09-30T17:02:24.534Z,32.50
2018-09-30T17:04:58.739Z,32.80
2018-09-30T17:07:32.924Z,32.70
2018-09-30T17:10:01.529Z,33.40
2018-09-30T17:12:30.131Z,32.70
2018-09-30T17:15:04.495Z,32.90
2018-09-30T17:17:33.024Z,32.80
2018-09-30T17:20:02.382Z,33.00
2018-09-30T17:22:36.682Z,36.60
2018-09-30T17:25:05.646Z,37.90
2018-09-30T17:27:34.769Z,39.40
2018-09-30T17:30:05.799Z,39.10
2018-09-30T17:32:35.163Z,39.70
2018-09-30T17:35:04.206Z,39.40
2018-09-30T17:37:32.918Z,40.80
2018-09-30T17:40:01.724Z,42.00
2018-09-30T17:42:30.406Z,42.30
2018-09-30T17:44:59.261Z,43.00
2018-09-30T17:47:28.197Z,44.60
2018-09-30T17:49:57.416Z,45.50
2018-09-30T17:52:26.132Z,45.60
2018-09-30T17:54:54.846Z,46.70
2018-09-30T17:57:23.631Z,47.50
2018-09-30T17:59:52.396Z,47.70
2018-09-30T18:02:26.419Z,47.90
2018-09-30T18:04:55.121Z,48.40
2018-09-30T18:07:23.904Z,48.70
2018-09-30T18:09:52.611Z,48.70
2018-09-30T18:12:21.256Z,49.50
2018-09-30T18:14:55.820Z,49.50
2018-09-30T18:17:29.871Z,49.90
2018-09-30T18:19:58.539Z,50.40
2018-09-30T18:22:27.443Z,50.50
2018-09-30T18:24:56.293Z,50.80
2018-09-30T18:27:25.245Z,51.20
2018-09-30T18:29:53.944Z,51.60
2018-09-30T18:32:22.904Z,52.10
2018-09-30T18:34:51.709Z,52.40
2018-09-30T18:37:22.132Z,52.90
2018-09-30T18:39:50.858Z,53.70
2018-09-30T18:42:21.031Z,54.30
2018-09-30T18:44:50.792Z,54.80
2018-09-30T18:47:19.639Z,55.10
2018-09-30T18:49:48.500Z,55.70
2018-09-30T18:52:17.317Z,55.70
2018-09-30T18:54:45.979Z,55.50
2018-09-30T18:57:20.089Z,55.10
2018-09-30T18:59:49.445Z,55.00
2018-09-30T19:02:18.241Z,55.20
2018-09-30T19:04:47.516Z,56.00
2018-09-30T19:07:23.504Z,56.60
2018-09-30T19:09:57.856Z,57.00
2018-09-30T19:12:37.084Z,56.50
2018-09-30T19:15:05.934Z,56.70
2018-09-30T19:17:34.634Z,56.90
2018-09-30T19:20:04.009Z,57.10
2018-09-30T19:22:33.545Z,57.20
2018-09-30T19:25:02.377Z,57.60
2018-09-30T19:27:31.013Z,57.60
2018-09-30T19:30:05.405Z,58.10
2018-09-30T19:32:34.092Z,58.30
2018-09-30T19:35:03.281Z,58.50
2018-09-30T19:37:32.104Z,58.60
2018-09-30T19:40:01.457Z,58.90
2018-09-30T19:42:30.676Z,58.90
2018-09-30T19:45:00.359Z,59.60
2018-09-30T19:47:29.824Z,60.30
2018-09-30T19:49:59.700Z,60.50
2018-09-30T19:52:28.990Z,60.80
2018-09-30T19:54:58.211Z,61.20
2018-09-30T19:57:26.942Z,61.20
2018-09-30T20:00:01.360Z,61.60
2018-09-30T20:02:36.221Z,61.50
2018-09-30T20:05:05.126Z,61.40
2018-09-30T20:07:34.957Z,61.40
2018-09-30T20:10:04.684Z,61.10
2018-09-30T20:12:34.528Z,61.20
2018-09-30T20:15:05.247Z,61.60
2018-09-30T20:17:34.122Z,61.70
2018-09-30T20:20:02.917Z,61.80
2018-09-30T20:22:45.889Z,62.10
2018-09-30T20:25:14.544Z,61.50
2018-09-30T20:27:48.845Z,61.60
2018-09-30T20:30:17.602Z,62.50
2018-09-30T20:32:46.286Z,62.40
2018-09-30T20:35:14.882Z,62.60
2018-09-30T20:37:43.526Z,63.30
2018-09-30T20:40:12.212Z,63.30
2018-09-30T20:42:41.252Z,63.70
2018-09-30T20:45:19.429Z,64.50
2018-09-30T20:47:48.057Z,64.90
2018-09-30T20:50:22.359Z,65.40
2018-09-30T20:52:51.377Z,65.90
2018-09-30T20:55:20.144Z,65.70
2018-09-30T20:57:48.866Z,65.80
2018-09-30T21:00:17.659Z,65.30
2018-09-30T21:02:46.434Z,65.30
2018-09-30T21:06:44.216Z,64.80
2018-09-30T21:09:15.530Z,64.40
2018-09-30T21:11:44.341Z,64.70
2018-09-30T21:14:13.489Z,64.90
2018-09-30T21:16:42.268Z,65.30
2018-09-30T21:19:10.983Z,65.60
2018-09-30T21:21:39.755Z,65.80
2018-09-30T21:24:09.313Z,66.00
2018-09-30T21:26:37.984Z,66.10
2018-09-30T21:29:06.641Z,66.20
2018-09-30T21:31:35.277Z,66.60
2018-09-30T21:34:04.103Z,67.00
2018-09-30T21:36:32.829Z,66.70
2018-09-30T21:39:01.661Z,66.30
2018-09-30T21:41:30.404Z,66.50
2018-09-30T21:43:59.060Z,66.30
2018-09-30T21:46:27.660Z,66.70
2018-09-30T21:48:56.311Z,67.90
2018-09-30T21:51:24.931Z,67.70
2018-09-30T21:53:53.574Z,68.40
2018-09-30T21:56:23.496Z,69.50
2018-09-30T21:58:52.111Z,69.50
2018-09-30T22:01:20.808Z,69.80
2018-09-30T22:03:50.036Z,69.90
2018-09-30T22:06:18.842Z,69.70
2018-09-30T22:08:47.621Z,70.70
2018-09-30T22:11:16.436Z,70.40
2018-09-30T22:13:45.276Z,70.40
2018-09-30T22:16:14.076Z,70.80
2018-09-30T22:18:42.937Z,71.20
2018-09-30T22:21:12.897Z,71.40
2018-09-30T22:23:41.661Z,71.40
2018-09-30T22:26:10.319Z,71.60
2018-09-30T22:28:39.051Z,71.90
2018-09-30T22:31:07.844Z,71.90
2018-09-30T22:33:37.114Z,72.20
2018-09-30T22:36:05.841Z,72.40
2018-09-30T22:38:34.569Z,72.60
2018-09-30T22:41:03.236Z,72.70
2018-09-30T22:43:31.969Z,72.80
2018-09-30T22:46:00.833Z,73.00
2018-09-30T22:48:29.664Z,73.00
2018-09-30T22:50:59.549Z,72.90
2018-09-30T22:53:28.213Z,73.10
2018-09-30T22:55:57.354Z,73.30
2018-09-30T22:58:26.093Z,73.10
2018-09-30T23:00:54.836Z,73.40
2018-09-30T23:03:23.453Z,73.60
2018-09-30T23:05:52.256Z,73.70
2018-09-30T23:08:21.323Z,74.10
2018-09-30T23:10:50.359Z,74.50
2018-09-30T23:13:19.449Z,74.20
2018-09-30T23:15:48.203Z,74.50
2018-09-30T23:18:16.916Z,74.70
2018-09-30T23:20:45.614Z,74.70
2018-09-30T23:23:14.330Z,74.90
2018-09-30T23:25:43.085Z,75.70
2018-09-30T23:28:13.519Z,75.40
2018-09-30T23:30:42.225Z,75.90
2018-09-30T23:33:10.912Z,75.50
2018-09-30T23:35:39.605Z,76.00
2018-09-30T23:38:08.522Z,76.30
2018-09-30T23:40:37.305Z,76.60
2018-09-30T23:43:06.142Z,76.60
2018-09-30T23:45:34.868Z,76.50
2018-09-30T23:48:03.573Z,76.50
2018-09-30T23:50:32.226Z,76.30
2018-09-30T23:53:00.940Z,76.60
2018-09-30T23:55:29.640Z,76.90
2018-09-30T23:58:10.593Z,77.10
